Flight Track Log - Related Links

Times and Time Zones

All times are in EDT time to prevent confusion due to time zone crossing. See the N602AN flight status page for this flight to view local times or setup timezone preferences in your user account.

Time Position Orientation Groundspeed Altitude Reporting Facility
EDT Latitude Longitude Course Direction KTS MPH feet Rate Location/Type
Tue 09:40:32 PM 25.7657 -80.2303 294° West  Level FlightAware Approximate
Tue 09:40:59 PM 25.7972 -80.3092 238° Southwest 173 199 800  Level Miami Center
Tue 09:45:02 PM 25.6619 -80.5494 182° South 285 328 11,600 2,686 Climbing Miami Center
Tue 09:45:36 PM 25.6244 -80.5506 140° Southeast 326 375 13,200 2,681 Climbing Miami Center
Tue 09:46:36 PM 25.5508 -80.4817 90° East 321 369 15,800 1,400 Climbing Miami Center
Tue 09:47:36 PM 25.5514 -80.3803 81° East 389 448 16,000 1,150 Climbing Miami Center
Tue 09:48:36 PM 25.5686 -80.2611 80° East 389 448 18,100 2,100 Climbing Miami Center
Tue 09:49:36 PM 25.5881 -80.1394 80° East 389 448 20,200 1,900 Climbing Miami Center
Tue 09:50:36 PM 25.6078 -80.0089 81° East 405 466 21,900 1,500 Climbing Miami Center
Tue 09:51:36 PM 25.6275 -79.8686 81° East 433 498 23,200 1,400 Climbing Miami Center
Tue 09:52:36 PM 25.6469 -79.7264 98° East 456 525 24,700 1,400 Climbing Miami Center
Tue 09:53:36 PM 25.6269 -79.5736 115° Southeast 477 549 26,000 1,550 Climbing Miami Center
Tue 09:54:36 PM 25.5708 -79.4389 124° Southeast 477 549 27,800 1,700 Climbing Miami Center
Tue 09:55:36 PM 25.4997 -79.3222 124° Southeast 459 528 29,400 1,650 Climbing Miami Center
Tue 09:56:36 PM 25.4264 -79.2011 124° Southeast 465 535 31,100 1,400 Climbing Miami Center
Tue 09:57:36 PM 25.3489 -79.0756 122° Southeast 476 548 32,200 1,800 Climbing Miami Center
Tue 09:58:36 PM 25.2736 -78.9431 126° Southeast 473 544 34,700 1,800 Climbing Miami Center
Tue 09:59:36 PM 25.1936 -78.8225 122° Southeast 473 544 35,800 1,300 Climbing Miami Center
Tue 10:00:36 PM 25.1242 -78.7019 124° Southeast 473 544 37,300 1,300 Climbing Miami Center
Tue 10:01:36 PM 25.0544 -78.5861 123° Southeast 473 544 38,400 850 Climbing Miami Center
Tue 10:02:36 PM 24.9828 -78.4661 125° Southeast 473 544 39,000 300 Climbing Miami Center
Tue 10:03:36 PM 24.9089 -78.3481 124° Southeast 473 544 39,000  Level Miami Center
Tue 10:04:36 PM 24.8367 -78.2283 124° Southeast 473 544 39,000  Level Miami Center
Tue 10:05:36 PM 24.7625 -78.1061 124° Southeast 473 544 39,000  Level Miami Center
Tue 10:06:36 PM 24.6883 -77.9864 129° Southeast 473 544 39,000  Level Miami Center
Tue 10:07:36 PM 24.6056 -77.8758 131° Southeast 473 544 39,000  Level Miami Center
Tue 10:08:36 PM 24.5206 -77.7681 129° Southeast 466 536 39,000  Level Miami Center
Tue 10:09:36 PM 24.4375 -77.6556 134° Southeast 466 536 39,000  Level Miami Center
Tue 10:10:36 PM 24.3483 -77.5544 138° Southeast 466 536 39,000  Level Miami Center
Tue 10:11:36 PM 24.2525 -77.4583 136° Southeast 461 531 39,000  Level Miami Center
Tue 10:12:39 PM 24.1672 -77.3692 139° Southeast 466 536 39,000  Level Miami Center
Tue 10:13:37 PM 24.0692 -77.2753 145° Southeast 471 542 39,000  Level Miami Center
Tue 10:14:37 PM 23.9692 -77.1978 147° Southeast 459 528 39,000  Level Miami Center
Tue 10:15:37 PM 23.8583 -77.1203 149° Southeast 445 512 39,000  Level Miami Center
Tue 10:16:37 PM 23.7500 -77.0494 148° Southeast 440 506 39,000  Level Miami Center
Tue 10:17:38 PM 23.6456 -76.9792 142° Southeast 440 506 39,000  Level Miami Center
Tue 10:18:39 PM 23.5472 -76.8953 131° Southeast 440 506 39,000  Level Miami Center
Tue 10:19:37 PM 23.4636 -76.7886 126° Southeast 450 518 39,000  Level Miami Center
Tue 10:20:38 PM 23.3861 -76.6711 120° Southeast 458 527 39,000  Level Miami Center
Tue 10:21:37 PM 23.3214 -76.5467 121° Southeast 474 545 39,000  Level Miami Center
Tue 10:22:37 PM 23.2519 -76.4203 120° Southeast 479 551 39,000  Level Miami Center
Tue 10:23:36 PM 23.1825 -76.2917 120° Southeast 484 557 39,000  Level Miami Center
Tue 10:24:37 PM 23.1153 -76.1653 121° Southeast 484 557 39,000  Level Miami Center
Tue 10:25:37 PM 23.0433 -76.0350 121° Southeast 495 570 39,000  Level Miami Center
Tue 10:26:36 PM 22.9739 -75.9089 120° Southeast 495 570 39,000  Level Miami Center
Tue 10:27:38 PM 22.9061 -75.7808 120° Southeast 490 564 39,000  Level Miami Center
Tue 10:28:39 PM 22.8444 -75.6642 121° Southeast 497 572 39,000  Level Miami Center
Tue 10:29:39 PM 22.7744 -75.5386 121° Southeast 492 566 39,000  Level Miami Center
Tue 10:30:37 PM 22.7044 -75.4133 120° Southeast 492 566 39,000  Level Miami Center
Tue 10:31:37 PM 22.6364 -75.2858 121° Southeast 492 566 39,000  Level Miami Center
Tue 10:32:38 PM 22.5681 -75.1606 121° Southeast 492 566 39,000  Level Miami Center
Tue 10:33:37 PM 22.4978 -75.0358 121° Southeast 492 566 39,000  Level Miami Center
Tue 10:34:38 PM 22.4272 -74.9108 121° Southeast 492 566 39,000  Level Miami Center
Tue 10:35:37 PM 22.3567 -74.7839 120° Southeast 492 566 39,000  Level Miami Center
Tue 10:36:37 PM 22.2900 -74.6569 122° Southeast 492 566 39,000  Level Miami Center
Tue 10:37:38 PM 22.2192 -74.5325 121° Southeast 492 566 39,000  Level Miami Center
Tue 10:38:37 PM 22.1506 -74.4083 121° Southeast 492 566 39,000  Level Miami Center
Tue 10:39:38 PM 22.0817 -74.2842 122° Southeast 487 560 39,000  Level Miami Center
Tue 10:40:37 PM 22.0106 -74.1600 120° Southeast 487 560 39,000  Level Miami Center
Tue 10:41:38 PM 21.9436 -74.0339 122° Southeast 487 560 39,000  Level Miami Center
Tue 10:42:39 PM 21.8658 -73.8992 121° Southeast 487 560 39,000  Level Miami Center
Tue 10:43:37 PM 21.7986 -73.7800 123° Southeast 481 554 39,000  Level Miami Center
Tue 10:44:37 PM 21.7339 -73.6742 119° Southeast 473 544 39,000  Level Miami Center
Tue 10:45:38 PM 21.6600 -73.5331 123° Southeast 485 558 39,000  Level Miami Center
Tue 10:46:39 PM 21.5950 -73.4253 121° Southeast 480 552 39,000  Level Miami Center
Tue 10:47:38 PM 21.5275 -73.3042 123° Southeast 474 545 39,000  Level Miami Center
Tue 10:48:39 PM 21.4556 -73.1836 122° Southeast 474 545 39,000  Level Miami Center
Tue 10:49:37 PM 21.3858 -73.0628 121° Southeast 474 545 39,000  Level Miami Center
Tue 10:50:37 PM 21.3161 -72.9378 121° Southeast 474 545 39,000  Level Miami Center
Tue 10:51:39 PM 21.2483 -72.8175 122° Southeast 474 545 39,000  Level Miami Center
Tue 10:52:37 PM 21.1781 -72.6950 121° Southeast 474 545 39,000  Level Miami Center
Tue 10:53:37 PM 21.1100 -72.5725 122° Southeast 474 545 39,000  Level Miami Center
Tue 10:54:38 PM 21.0400 -72.4503 122° Southeast 474 545 39,000  Level Miami Center
Tue 10:55:39 PM 20.9675 -72.3283 122° Southeast 474 545 39,000  Level Miami Center
Tue 10:56:37 PM 20.8994 -72.2106 122° Southeast 474 545 39,000  Level Miami Center
Tue 10:57:38 PM 20.8289 -72.0911 122° Southeast 474 545 39,000  Level Miami Center
Tue 10:58:38 PM 20.7583 -71.9694 122° Southeast 474 545 39,000  Level Miami Center
Tue 10:59:39 PM 20.6878 -71.8500 123° Southeast 479 551 39,000  Level Miami Center
Tue 11:00:37 PM 20.6150 -71.7286 122° Southeast 479 551 39,000  Level Miami Center
Tue 11:01:37 PM 20.5464 -71.6094 122° Southeast 479 551 39,000  Level Miami Center
Tue 11:02:38 PM 20.4758 -71.4906 126° Southeast 479 551 39,000  Level Miami Center
Tue 11:03:39 PM 20.3989 -71.3764 143° Southeast 474 545 39,000  Level Miami Center
Tue 11:11:32 PM 19.7140 -70.8376 138° Southeast  Level FlightAware Approximate
Tue 11:12:32 PM 19.6297 -70.7579 150° Southeast  Level FlightAware Approximate
Tue 11:13:32 PM 19.5329 -70.6997 137° Southeast  Level FlightAware Approximate
Tue 11:14:32 PM 19.4499 -70.6186 134° Southeast  Level FlightAware Approximate
Tue 11:15:32 PM 19.3780 -70.5411 138° Southeast  Level FlightAware Approximate
Tue 11:16:32 PM 19.2946 -70.4607 138° Southeast  Level FlightAware Approximate
Tue 11:17:32 PM 19.2111 -70.3803 138° Southeast  Level FlightAware Approximate
Tue 11:18:32 PM 19.1276 -70.3000 138° Southeast  Level FlightAware Approximate
Tue 11:19:32 PM 19.0441 -70.2197 138° Southeast  Level FlightAware Approximate
Tue 11:20:32 PM 18.9605 -70.1396 138° Southeast  Level FlightAware Approximate
Tue 11:21:32 PM 18.8769 -70.0595 138° Southeast  Level FlightAware Approximate
Tue 11:22:32 PM 18.7932 -69.9795 113° Southeast  Level FlightAware Approximate
Tue 11:23:32 PM 18.7521 -69.8792 146° Southeast  Level FlightAware Approximate
Tue 11:24:32 PM 18.6586 -69.8126 147° Southeast  Level FlightAware Approximate
Tue 11:25:32 PM 18.5642 -69.7481 146° Southeast  Level FlightAware Approximate
Tue 11:26:32 PM 18.4704 -69.6822 163° South  Level FlightAware Approximate
Tue 11:27:32 PM 18.3626 -69.6470 357° North  Level Estimated
Tue 11:28:32 PM 18.4167 -69.6500 306° West  Level FlightAware Approximate
Tue 11:29:32 PM 18.4872 -69.7527 126° Southeast  Level Estimated
Tue 11:30:32 PM 18.4167 -69.6500 126° Southeast  Level FlightAware Approximate

Login

Don't have an account? Register now (free) for customized features, flight alerts, and more!